sensor_id;sensor_type;location;lat;lon;timestamp;pressure;altitude;pressure_sealevel;temperature;humidity
19624;BME280;9959;49.798;9.928;2024-03-02T00:00:48;98516.38;;;5.70;100.00
19624;BME280;9959;49.798;9.928;2024-03-02T00:03:15;98514.69;;;5.83;100.00
19624;BME280;9959;49.798;9.928;2024-03-02T00:05:42;98513.84;;;5.75;100.00
19624;BME280;9959;49.798;9.928;2024-03-02T00:08:09;98512.22;;;5.74;100.00
19624;BME280;9959;49.798;9.928;2024-03-02T00:10:39;98514.31;;;5.72;100.00
19624;BME280;9959;49.798;9.928;2024-03-02T00:13:08;98508.97;;;5.72;100.00
19624;BME280;9959;49.798;9.928;2024-03-02T00:15:47;98508.16;;;5.65;100.00
19624;BME280;9959;49.798;9.928;2024-03-02T00:18:19;98515.34;;;5.58;100.00
19624;BME280;9959;49.798;9.928;2024-03-02T00:20:46;98516.16;;;5.59;100.00
19624;BME280;9959;49.798;9.928;2024-03-02T00:23:15;98507.13;;;5.60;100.00
19624;BME280;9959;49.798;9.928;2024-03-02T00:25:50;98515.53;;;5.63;100.00
19624;BME280;9959;49.798;9.928;2024-03-02T00:28:24;98517.38;;;5.63;100.00
19624;BME280;9959;49.798;9.928;2024-03-02T00:30:55;98518.41;;;5.55;100.00
19624;BME280;9959;49.798;9.928;2024-03-02T00:33:26;98516.38;;;5.57;100.00
19624;BME280;9959;49.798;9.928;2024-03-02T00:35:55;98525.41;;;5.56;100.00
19624;BME280;9959;49.798;9.928;2024-03-02T00:38:22;98531.16;;;5.53;100.00
19624;BME280;9959;49.798;9.928;2024-03-02T00:40:51;98542.66;;;5.54;100.00
19624;BME280;9959;49.798;9.928;2024-03-02T00:43:38;98541.88;;;5.40;100.00
19624;BME280;9959;49.798;9.928;2024-03-02T00:46:13;98531.81;;;5.42;100.00
19624;BME280;9959;49.798;9.928;2024-03-02T00:48:52;98539.19;;;5.40;100.00
19624;BME280;9959;49.798;9.928;2024-03-02T00:51:22;98531.16;;;5.53;100.00
19624;BME280;9959;49.798;9.928;2024-03-02T00:53:51;98538.16;;;5.54;100.00
19624;BME280;9959;49.798;9.928;2024-03-02T00:56:19;98533.25;;;5.44;100.00
19624;BME280;9959;49.798;9.928;2024-03-02T00:58:48;98533.03;;;5.39;100.00
19624;BME280;9959;49.798;9.928;2024-03-02T01:01:19;98540.63;;;5.42;100.00
19624;BME280;9959;49.798;9.928;2024-03-02T01:03:46;98539.81;;;5.35;100.00
19624;BME280;9959;49.798;9.928;2024-03-02T01:06:15;98539.00;;;5.41;100.00
19624;BME280;9959;49.798;9.928;2024-03-02T01:08:43;98531.19;;;5.33;100.00
19624;BME280;9959;49.798;9.928;2024-03-02T01:11:10;98539.38;;;5.32;100.00
19624;BME280;9959;49.798;9.928;2024-03-02T01:13:37;98545.56;;;5.32;100.00
19624;BME280;9959;49.798;9.928;2024-03-02T01:16:04;98543.91;;;5.31;100.00
19624;BME280;9959;49.798;9.928;2024-03-02T01:18:31;98547.16;;;5.00;100.00
19624;BME280;9959;49.798;9.928;2024-03-02T01:20:58;98549.41;;;4.97;100.00
19624;BME280;9959;49.798;9.928;2024-03-02T01:23:25;98533.19;;;4.98;100.00
19624;BME280;9959;49.798;9.928;2024-03-02T01:25:52;98545.94;;;5.23;100.00
19624;BME280;9959;49.798;9.928;2024-03-02T01:28:19;98543.91;;;5.25;100.00
19624;BME280;9959;49.798;9.928;2024-03-02T01:30:48;98551.09;;;5.18;100.00
19624;BME280;9959;49.798;9.928;2024-03-02T01:33:16;98538.97;;;5.02;100.00
19624;BME280;9959;49.798;9.928;2024-03-02T01:35:48;98549.00;;;4.93;100.00
19624;BME280;9959;49.798;9.928;2024-03-02T01:38:18;98538.94;;;4.95;100.00
19624;BME280;9959;49.798;9.928;2024-03-02T01:40:46;98536.50;;;5.27;100.00
19624;BME280;9959;49.798;9.928;2024-03-02T01:43:13;98533.63;;;5.28;100.00
19624;BME280;9959;49.798;9.928;2024-03-02T01:45:40;98542.06;;;5.32;100.00
19624;BME280;9959;49.798;9.928;2024-03-02T01:48:07;98533.22;;;5.38;100.00
19624;BME280;9959;49.798;9.928;2024-03-02T01:50:35;98534.69;;;5.40;100.00
19624;BME280;9959;49.798;9.928;2024-03-02T01:53:02;98533.44;;;5.43;100.00
19624;BME280;9959;49.798;9.928;2024-03-02T01:55:29;98530.75;;;5.30;100.00
19624;BME280;9959;49.798;9.928;2024-03-02T01:57:57;98530.16;;;5.41;100.00
19624;BME280;9959;49.798;9.928;2024-03-02T02:00:25;98532.00;;;5.34;100.00
19624;BME280;9959;49.798;9.928;2024-03-02T02:02:54;98528.91;;;5.37;100.00
19624;BME280;9959;49.798;9.928;2024-03-02T02:05:22;98528.72;;;5.32;100.00
19624;BME280;9959;49.798;9.928;2024-03-02T02:07:49;98518.44;;;5.29;100.00
19624;BME280;9959;49.798;9.928;2024-03-02T02:10:16;98524.81;;;5.28;100.00
19624;BME280;9959;49.798;9.928;2024-03-02T02:12:43;98512.25;;;5.22;100.00
19624;BME280;9959;49.798;9.928;2024-03-02T02:15:29;98509.81;;;5.27;100.00
19624;BME280;9959;49.798;9.928;2024-03-02T02:17:58;98510.84;;;5.19;100.00
19624;BME280;9959;49.798;9.928;2024-03-02T02:20:26;98508.59;;;5.16;100.00
19624;BME280;9959;49.798;9.928;2024-03-02T02:23:00;98512.69;;;5.19;100.00
19624;BME280;9959;49.798;9.928;2024-03-02T02:25:28;98509.00;;;5.13;100.00
19624;BME280;9959;49.798;9.928;2024-03-02T02:27:56;98510.63;;;5.07;100.00
19624;BME280;9959;49.798;9.928;2024-03-02T02:30:27;98511.25;;;5.03;100.00
19624;BME280;9959;49.798;9.928;2024-03-02T02:32:54;98504.47;;;5.07;100.00
19624;BME280;9959;49.798;9.928;2024-03-02T02:35:22;98509.59;;;5.08;100.00
19624;BME280;9959;49.798;9.928;2024-03-02T02:37:52;98511.47;;;5.15;100.00
19624;BME280;9959;49.798;9.928;2024-03-02T02:40:20;98509.22;;;5.18;100.00
19624;BME280;9959;49.798;9.928;2024-03-02T02:42:48;98504.06;;;5.03;100.00
19624;BME280;9959;49.798;9.928;2024-03-02T02:45:15;98510.25;;;5.17;100.00
19624;BME280;9959;49.798;9.928;2024-03-02T02:47:42;98508.56;;;5.23;100.00
19624;BME280;9959;49.798;9.928;2024-03-02T02:50:11;98502.00;;;5.05;100.00
19624;BME280;9959;49.798;9.928;2024-03-02T02:52:41;98509.38;;;5.03;100.00
19624;BME280;9959;49.798;9.928;2024-03-02T02:55:12;98504.88;;;4.97;100.00
19624;BME280;9959;49.798;9.928;2024-03-02T02:57:41;98502.81;;;4.99;100.00
19624;BME280;9959;49.798;9.928;2024-03-02T03:00:14;98497.47;;;4.99;100.00
19624;BME280;9959;49.798;9.928;2024-03-02T03:02:48;98497.69;;;5.04;100.00
19624;BME280;9959;49.798;9.928;2024-03-02T03:05:17;98499.94;;;5.07;100.00
19624;BME280;9959;49.798;9.928;2024-03-02T03:07:44;98497.91;;;5.09;100.00
19624;BME280;9959;49.798;9.928;2024-03-02T03:10:12;98500.75;;;4.95;100.00
19624;BME280;9959;49.798;9.928;2024-03-02T03:12:41;98500.75;;;4.82;100.00
19624;BME280;9959;49.798;9.928;2024-03-02T03:15:12;98493.78;;;4.81;100.00
19624;BME280;9959;49.798;9.928;2024-03-02T03:17:40;98499.53;;;4.84;100.00
19624;BME280;9959;49.798;9.928;2024-03-02T03:20:08;98493.78;;;4.87;100.00
19624;BME280;9959;49.798;9.928;2024-03-02T03:22:41;98504.81;;;4.71;100.00
19624;BME280;9959;49.798;9.928;2024-03-02T03:25:08;98504.22;;;4.62;100.00
19624;BME280;9959;49.798;9.928;2024-03-02T03:27:36;98506.47;;;4.59;100.00
19624;BME280;9959;49.798;9.928;2024-03-02T03:30:06;98505.66;;;4.78;100.00
19624;BME280;9959;49.798;9.928;2024-03-02T03:32:34;98514.06;;;4.68;100.00
19624;BME280;9959;49.798;9.928;2024-03-02T03:35:01;98506.84;;;4.56;100.00
19624;BME280;9959;49.798;9.928;2024-03-02T03:37:28;98501.75;;;4.61;100.00
19624;BME280;9959;49.798;9.928;2024-03-02T03:40:04;98497.63;;;4.58;100.00
19624;BME280;9959;49.798;9.928;2024-03-02T03:42:38;98497.81;;;4.57;100.00
19624;BME280;9959;49.798;9.928;2024-03-02T03:45:06;98500.91;;;4.54;100.00
19624;BME280;9959;49.798;9.928;2024-03-02T03:47:34;98499.03;;;4.48;100.00
19624;BME280;9959;49.798;9.928;2024-03-02T03:50:01;98499.44;;;4.45;100.00
19624;BME280;9959;49.798;9.928;2024-03-02T03:52:31;98498.22;;;4.54;100.00
19624;BME280;9959;49.798;9.928;2024-03-02T03:54:58;98503.94;;;4.37;100.00
19624;BME280;9959;49.798;9.928;2024-03-02T03:57:25;98504.50;;;4.26;100.00
19624;BME280;9959;49.798;9.928;2024-03-02T03:59:53;98513.72;;;4.24;100.00
19624;BME280;9959;49.798;9.928;2024-03-02T04:02:20;98513.34;;;4.33;100.00
19624;BME280;9959;49.798;9.928;2024-03-02T04:04:47;98517.44;;;4.29;100.00
19624;BME280;9959;49.798;9.928;2024-03-02T04:07:14;98506.81;;;4.42;100.00
19624;BME280;9959;49.798;9.928;2024-03-02T04:09:41;98517.28;;;4.37;100.00
19624;BME280;9959;49.798;9.928;2024-03-02T04:12:08;98512.72;;;4.31;100.00
19624;BME280;9959;49.798;9.928;2024-03-02T04:14:35;98514.78;;;4.29;100.00
19624;BME280;9959;49.798;9.928;2024-03-02T04:17:02;98512.06;;;4.23;100.00
19624;BME280;9959;49.798;9.928;2024-03-02T04:19:28;98515.38;;;4.25;100.00
19624;BME280;9959;49.798;9.928;2024-03-02T04:21:55;98522.31;;;4.19;100.00
19624;BME280;9959;49.798;9.928;2024-03-02T04:24:25;98518.97;;;4.04;100.00
19624;BME280;9959;49.798;9.928;2024-03-02T04:26:52;98522.59;;;3.96;100.00
19624;BME280;9959;49.798;9.928;2024-03-02T04:29:19;98518.56;;;4.07;100.00
19624;BME280;9959;49.798;9.928;2024-03-02T04:31:45;98519.41;;;4.14;100.00
19624;BME280;9959;49.798;9.928;2024-03-02T04:34:12;98520.22;;;4.08;100.00
19624;BME280;9959;49.798;9.928;2024-03-02T04:36:39;98522.25;;;4.06;100.00
19624;BME280;9959;49.798;9.928;2024-03-02T04:39:07;98523.88;;;4.00;100.00
19624;BME280;9959;49.798;9.928;2024-03-02T04:41:36;98518.94;;;3.97;100.00
19624;BME280;9959;49.798;9.928;2024-03-02T04:44:03;98516.78;;;3.80;100.00
19624;BME280;9959;49.798;9.928;2024-03-02T04:46:31;98517.00;;;3.85;100.00
19624;BME280;9959;49.798;9.928;2024-03-02T04:48:58;98529.00;;;4.02;100.00
19624;BME280;9959;49.798;9.928;2024-03-02T04:51:25;98524.69;;;4.01;100.00
19624;BME280;9959;49.798;9.928;2024-03-02T04:53:52;98527.53;;;3.99;100.00
19624;BME280;9959;49.798;9.928;2024-03-02T04:56:19;98529.72;;;3.83;100.00
19624;BME280;9959;49.798;9.928;2024-03-02T04:58:54;98534.25;;;3.89;100.00
19624;BME280;9959;49.798;9.928;2024-03-02T05:01:21;98527.06;;;3.83;100.00
19624;BME280;9959;49.798;9.928;2024-03-02T05:03:49;98528.47;;;3.85;100.00
19624;BME280;9959;49.798;9.928;2024-03-02T05:06:15;98538.50;;;3.83;100.00
19624;BME280;9959;49.798;9.928;2024-03-02T05:08:42;98534.44;;;3.87;100.00
19624;BME280;9959;49.798;9.928;2024-03-02T05:11:11;98542.59;;;3.79;100.00
19624;BME280;9959;49.798;9.928;2024-03-02T05:14:17;98548.47;;;3.68;100.00
19624;BME280;9959;49.798;9.928;2024-03-02T05:16:44;98547.19;;;3.64;100.00
19624;BME280;9959;49.798;9.928;2024-03-02T05:19:11;98545.31;;;3.58;100.00
19624;BME280;9959;49.798;9.928;2024-03-02T05:21:38;98543.31;;;3.66;100.00
19624;BME280;9959;49.798;9.928;2024-03-02T05:24:05;98543.75;;;3.70;100.00
19624;BME280;9959;49.798;9.928;2024-03-02T05:26:32;98550.31;;;3.67;100.00
19624;BME280;9959;49.798;9.928;2024-03-02T05:28:59;98557.66;;;3.65;100.00
19624;BME280;9959;49.798;9.928;2024-03-02T05:31:26;98559.50;;;3.65;100.00
19624;BME280;9959;49.798;9.928;2024-03-02T05:33:53;98556.31;;;3.48;100.00
19624;BME280;9959;49.798;9.928;2024-03-02T05:36:23;98556.75;;;3.52;100.00
19624;BME280;9959;49.798;9.928;2024-03-02T05:38:50;98557.13;;;3.49;100.00
19624;BME280;9959;49.798;9.928;2024-03-02T05:41:21;98557.78;;;3.29;100.00
19624;BME280;9959;49.798;9.928;2024-03-02T05:43:49;98554.84;;;3.18;100.00
19624;BME280;9959;49.798;9.928;2024-03-02T05:46:16;98556.09;;;3.22;100.00
19624;BME280;9959;49.798;9.928;2024-03-02T05:48:43;98563.16;;;3.36;100.00
19624;BME280;9959;49.798;9.928;2024-03-02T05:51:10;98557.78;;;3.29;100.00
19624;BME280;9959;49.798;9.928;2024-03-02T05:53:37;98564.59;;;3.11;100.00
19624;BME280;9959;49.798;9.928;2024-03-02T05:56:05;98564.97;;;3.08;100.00
19624;BME280;9959;49.798;9.928;2024-03-02T05:58:33;98558.75;;;3.22;100.00
19624;BME280;9959;49.798;9.928;2024-03-02T06:01:19;98553.44;;;3.22;100.00
19624;BME280;9959;49.798;9.928;2024-03-02T06:03:46;98562.56;;;3.13;100.00
19624;BME280;9959;49.798;9.928;2024-03-02T06:06:12;98560.78;;;3.20;100.00
19624;BME280;9959;49.798;9.928;2024-03-02T06:08:39;98567.69;;;3.14;100.00
19624;BME280;9959;49.798;9.928;2024-03-02T06:11:06;98557.50;;;3.18;100.00
19624;BME280;9959;49.798;9.928;2024-03-02T06:13:33;98557.59;;;3.31;100.00
19624;BME280;9959;49.798;9.928;2024-03-02T06:16:00;98556.56;;;3.32;100.00
19624;BME280;9959;49.798;9.928;2024-03-02T06:18:27;98552.78;;;3.41;100.00
19624;BME280;9959;49.798;9.928;2024-03-02T06:20:54;98552.56;;;3.43;100.00
19624;BME280;9959;49.798;9.928;2024-03-02T06:23:21;98551.38;;;3.45;100.00
19624;BME280;9959;49.798;9.928;2024-03-02T06:25:48;98555.69;;;3.46;100.00
19624;BME280;9959;49.798;9.928;2024-03-02T06:28:15;98553.66;;;3.48;100.00
19624;BME280;9959;49.798;9.928;2024-03-02T06:30:42;98545.84;;;3.47;100.00
19624;BME280;9959;49.798;9.928;2024-03-02T06:33:10;98539.47;;;3.41;100.00
19624;BME280;9959;49.798;9.928;2024-03-02T06:35:36;98548.13;;;3.50;100.00
19624;BME280;9959;49.798;9.928;2024-03-02T06:38:03;98553.09;;;3.59;100.00
19624;BME280;9959;49.798;9.928;2024-03-02T06:40:30;98558.69;;;3.64;100.00
19624;BME280;9959;49.798;9.928;2024-03-02T06:42:58;98561.16;;;3.66;100.00
19624;BME280;9959;49.798;9.928;2024-03-02T06:45:26;98568.31;;;3.65;100.00
19624;BME280;9959;49.798;9.928;2024-03-02T06:47:53;98565.13;;;3.77;100.00
19624;BME280;9959;49.798;9.928;2024-03-02T06:50:20;98575.84;;;3.90;100.00
19624;BME280;9959;49.798;9.928;2024-03-02T06:52:47;98562.00;;;4.01;100.00
19624;BME280;9959;49.798;9.928;2024-03-02T06:55:14;98568.59;;;4.05;100.00
19624;BME280;9959;49.798;9.928;2024-03-02T06:57:41;98580.34;;;4.24;100.00
19624;BME280;9959;49.798;9.928;2024-03-02T07:00:08;98579.03;;;4.48;100.00
19624;BME280;9959;49.798;9.928;2024-03-02T07:02:35;98577.00;;;4.50;100.00
19624;BME280;9959;49.798;9.928;2024-03-02T07:05:03;98578.13;;;4.27;100.00
19624;BME280;9959;49.798;9.928;2024-03-02T07:07:31;98575.34;;;4.49;100.00
19624;BME280;9959;49.798;9.928;2024-03-02T07:10:01;98585.16;;;4.41;100.00
19624;BME280;9959;49.798;9.928;2024-03-02T07:12:28;98587.03;;;4.48;100.00
19624;BME280;9959;49.798;9.928;2024-03-02T07:14:55;98585.88;;;4.63;100.00
19624;BME280;9959;49.798;9.928;2024-03-02T07:17:31;98584.69;;;4.79;100.00
19624;BME280;9959;49.798;9.928;2024-03-02T07:19:59;98583.03;;;4.78;100.00
19624;BME280;9959;49.798;9.928;2024-03-02T07:22:26;98586.56;;;4.98;100.00
19624;BME280;9959;49.798;9.928;2024-03-02T07:25:03;98586.63;;;5.12;100.00
19624;BME280;9959;49.798;9.928;2024-03-02T07:27:49;98589.28;;;5.25;100.00
19624;BME280;9959;49.798;9.928;2024-03-02T07:30:29;98572.25;;;5.52;100.00
19624;BME280;9959;49.798;9.928;2024-03-02T07:33:01;98580.47;;;5.64;100.00
19624;BME280;9959;49.798;9.928;2024-03-02T07:35:40;98579.63;;;5.83;100.00
19624;BME280;9959;49.798;9.928;2024-03-02T07:38:07;98582.09;;;5.85;100.00
19624;BME280;9959;49.798;9.928;2024-03-02T07:40:35;98595.28;;;5.93;100.00
19624;BME280;9959;49.798;9.928;2024-03-02T07:43:02;98582.72;;;6.13;100.00
19624;BME280;9959;49.798;9.928;2024-03-02T07:45:29;98581.03;;;6.25;100.00
19624;BME280;9959;49.798;9.928;2024-03-02T07:47:56;98579.16;;;6.32;100.00
19624;BME280;9959;49.798;9.928;2024-03-02T07:50:23;98584.06;;;6.49;100.00
19624;BME280;9959;49.798;9.928;2024-03-02T07:52:49;98590.38;;;6.61;100.00
19624;BME280;9959;49.798;9.928;2024-03-02T07:55:17;98587.06;;;6.65;100.00
19624;BME280;9959;49.798;9.928;2024-03-02T07:57:44;98602.53;;;6.57;100.00
19624;BME280;9959;49.798;9.928;2024-03-02T08:00:11;98596.16;;;7.02;100.00
19624;BME280;9959;49.798;9.928;2024-03-02T08:02:38;98583.53;;;6.71;100.00
19624;BME280;9959;49.798;9.928;2024-03-02T08:05:06;98590.25;;;6.87;100.00
19624;BME280;9959;49.798;9.928;2024-03-02T08:07:36;98588.56;;;7.31;100.00
19624;BME280;9959;49.798;9.928;2024-03-02T08:10:04;98585.88;;;7.31;100.00
19624;BME280;9959;49.798;9.928;2024-03-02T08:12:32;98585.59;;;7.39;98.98
19624;BME280;9959;49.798;9.928;2024-03-02T08:14:59;98586.09;;;7.29;100.00
19624;BME280;9959;49.798;9.928;2024-03-02T08:17:27;98597.09;;;7.46;99.59
19624;BME280;9959;49.798;9.928;2024-03-02T08:19:54;98596.59;;;7.31;99.18
19624;BME280;9959;49.798;9.928;2024-03-02T08:22:21;98595.25;;;7.71;95.91
19624;BME280;9959;49.798;9.928;2024-03-02T08:24:49;98598.06;;;7.27;98.51
19624;BME280;9959;49.798;9.928;2024-03-02T08:27:17;98588.66;;;7.67;96.73
19624;BME280;9959;49.798;9.928;2024-03-02T08:29:44;98590.47;;;7.98;94.11
19624;BME280;9959;49.798;9.928;2024-03-02T08:32:11;98590.53;;;8.35;91.88
19624;BME280;9959;49.798;9.928;2024-03-02T08:34:38;98595.09;;;8.34;90.27
19624;BME280;9959;49.798;9.928;2024-03-02T08:37:05;98593.00;;;8.36;90.34
19624;BME280;9959;49.798;9.928;2024-03-02T08:39:32;98593.13;;;8.60;88.97
19624;BME280;9959;49.798;9.928;2024-03-02T08:41:59;98591.75;;;7.71;91.51
19624;BME280;9959;49.798;9.928;2024-03-02T08:44:29;98587.41;;;8.56;88.84
19624;BME280;9959;49.798;9.928;2024-03-02T08:46:56;98586.34;;;7.96;90.38
19624;BME280;9959;49.798;9.928;2024-03-02T08:49:23;98584.22;;;7.61;96.81
19624;BME280;9959;49.798;9.928;2024-03-02T08:51:50;98584.75;;;8.31;92.44
19624;BME280;9959;49.798;9.928;2024-03-02T08:54:22;98582.22;;;8.91;89.42
19624;BME280;9959;49.798;9.928;2024-03-02T08:56:49;98582.22;;;8.91;87.84
19624;BME280;9959;49.798;9.928;2024-03-02T08:59:16;98575.59;;;8.75;88.95
19624;BME280;9959;49.798;9.928;2024-03-02T09:01:45;98579.44;;;8.98;87.20
19624;BME280;9959;49.798;9.928;2024-03-02T09:04:12;98583.81;;;9.10;85.41
19624;BME280;9959;49.798;9.928;2024-03-02T09:06:39;98588.34;;;9.40;83.96
19624;BME280;9959;49.798;9.928;2024-03-02T09:09:06;98586.56;;;9.34;83.66
19624;BME280;9959;49.798;9.928;2024-03-02T09:11:33;98587.00;;;9.19;85.01
19624;BME280;9959;49.798;9.928;2024-03-02T09:14:01;98591.00;;;9.28;84.81
19624;BME280;9959;49.798;9.928;2024-03-02T09:16:28;98592.69;;;9.64;84.33
19624;BME280;9959;49.798;9.928;2024-03-02T09:18:58;98601.69;;;9.58;83.50
19624;BME280;9959;49.798;9.928;2024-03-02T09:21:24;98599.50;;;9.67;82.98
19624;BME280;9959;49.798;9.928;2024-03-02T09:23:52;98597.38;;;9.15;84.46
19624;BME280;9959;49.798;9.928;2024-03-02T09:26:19;98596.84;;;9.37;84.30
19624;BME280;9959;49.798;9.928;2024-03-02T09:28:50;98594.44;;;9.47;84.01
19624;BME280;9959;49.798;9.928;2024-03-02T09:31:17;98586.53;;;9.75;81.86
19624;BME280;9959;49.798;9.928;2024-03-02T09:33:44;98599.38;;;9.73;81.94
19624;BME280;9959;49.798;9.928;2024-03-02T09:36:22;98594.78;;;9.50;82.85
19624;BME280;9959;49.798;9.928;2024-03-02T09:38:49;98590.47;;;9.61;83.21
19624;BME280;9959;49.798;9.928;2024-03-02T09:41:16;98582.75;;;9.53;82.81
19624;BME280;9959;49.798;9.928;2024-03-02T09:43:43;98585.34;;;9.71;82.47
19624;BME280;9959;49.798;9.928;2024-03-02T09:46:11;98588.88;;;10.07;81.39
19624;BME280;9959;49.798;9.928;2024-03-02T09:48:38;98583.53;;;10.30;81.11
19624;BME280;9959;49.798;9.928;2024-03-02T09:51:05;98585.16;;;10.20;79.76
19624;BME280;9959;49.798;9.928;2024-03-02T09:53:34;98583.28;;;10.20;79.51
19624;BME280;9959;49.798;9.928;2024-03-02T09:56:01;98583.72;;;10.40;79.22
19624;BME280;9959;49.798;9.928;2024-03-02T09:58:28;98585.25;;;10.48;78.75
19624;BME280;9959;49.798;9.928;2024-03-02T10:00:55;98582.47;;;10.71;77.17
19624;BME280;9959;49.798;9.928;2024-03-02T10:03:23;98581.25;;;10.50;77.47
19624;BME280;9959;49.798;9.928;2024-03-02T10:05:53;98586.59;;;11.02;75.76
19624;BME280;9959;49.798;9.928;2024-03-02T10:08:20;98584.72;;;11.03;76.19
19624;BME280;9959;49.798;9.928;2024-03-02T10:10:47;98576.84;;;11.13;75.35
19624;BME280;9959;49.798;9.928;2024-03-02T10:13:14;98584.59;;;11.71;73.46
19624;BME280;9959;49.798;9.928;2024-03-02T10:15:43;98578.06;;;12.39;69.48
19624;BME280;9959;49.798;9.928;2024-03-02T10:18:11;98582.81;;;12.49;69.25
19624;BME280;9959;49.798;9.928;2024-03-02T10:20:44;98577.13;;;12.94;67.50
19624;BME280;9959;49.798;9.928;2024-03-02T10:23:16;98570.00;;;12.83;67.47
19624;BME280;9959;49.798;9.928;2024-03-02T10:25:44;98570.56;;;12.85;67.65
19624;BME280;9959;49.798;9.928;2024-03-02T10:28:23;98574.84;;;13.30;66.58
19624;BME280;9959;49.798;9.928;2024-03-02T10:30:51;98556.19;;;12.58;67.98
19624;BME280;9959;49.798;9.928;2024-03-02T10:33:20;98564.75;;;12.33;68.58
19624;BME280;9959;49.798;9.928;2024-03-02T10:35:49;98556.78;;;12.65;67.66
19624;BME280;9959;49.798;9.928;2024-03-02T10:38:17;98562.28;;;12.31;68.08
19624;BME280;9959;49.798;9.928;2024-03-02T10:40:47;98560.13;;;12.50;68.01
19624;BME280;9959;49.798;9.928;2024-03-02T10:43:15;98557.19;;;12.51;67.14
19624;BME280;9959;49.798;9.928;2024-03-02T10:45:43;98548.16;;;12.89;66.81
19624;BME280;9959;49.798;9.928;2024-03-02T10:48:11;98551.19;;;12.93;65.81
19624;BME280;9959;49.798;9.928;2024-03-02T10:50:38;98553.16;;;13.25;65.63
19624;BME280;9959;49.798;9.928;2024-03-02T10:53:05;98545.53;;;14.28;61.71
19624;BME280;9959;49.798;9.928;2024-03-02T10:55:32;98552.41;;;13.61;63.16
19624;BME280;9959;49.798;9.928;2024-03-02T10:58:00;98544.13;;;14.15;62.69
19624;BME280;9959;49.798;9.928;2024-03-02T11:00:34;98538.00;;;13.87;60.76
19624;BME280;9959;49.798;9.928;2024-03-02T11:03:06;98545.81;;;14.21;60.25
19624;BME280;9959;49.798;9.928;2024-03-02T11:05:36;98541.25;;;13.89;61.00
19624;BME280;9959;49.798;9.928;2024-03-02T11:08:08;98531.06;;;14.07;60.81
19624;BME280;9959;49.798;9.928;2024-03-02T11:10:49;98548.41;;;13.69;62.07
19624;BME280;9959;49.798;9.928;2024-03-02T11:13:22;98540.72;;;13.87;61.92
19624;BME280;9959;49.798;9.928;2024-03-02T11:15:54;98539.53;;;14.63;59.55
19624;BME280;9959;49.798;9.928;2024-03-02T11:18:23;98536.44;;;15.37;57.98
19624;BME280;9959;49.798;9.928;2024-03-02T11:20:51;98520.94;;;14.34;58.37
19624;BME280;9959;49.798;9.928;2024-03-02T11:23:18;98527.72;;;14.99;57.28
19624;BME280;9959;49.798;9.928;2024-03-02T11:26:19;98530.09;;;14.75;58.83
19624;BME280;9959;49.798;9.928;2024-03-02T11:28:47;98522.00;;;14.33;59.14
19624;BME280;9959;49.798;9.928;2024-03-02T11:31:14;98518.72;;;14.83;58.74
19624;BME280;9959;49.798;9.928;2024-03-02T11:33:41;98520.13;;;14.34;59.79
19624;BME280;9959;49.798;9.928;2024-03-02T11:36:09;98518.78;;;15.19;57.61
19624;BME280;9959;49.798;9.928;2024-03-02T11:38:38;98516.94;;;15.80;56.89
19624;BME280;9959;49.798;9.928;2024-03-02T11:41:06;98511.50;;;15.30;56.70
19624;BME280;9959;49.798;9.928;2024-03-02T11:43:39;98504.94;;;14.95;57.73
19624;BME280;9959;49.798;9.928;2024-03-02T11:46:08;98501.16;;;15.21;57.05
19624;BME280;9959;49.798;9.928;2024-03-02T11:48:36;98506.53;;;16.28;53.81
19624;BME280;9959;49.798;9.928;2024-03-02T11:51:05;98497.03;;;16.90;52.41
19624;BME280;9959;49.798;9.928;2024-03-02T11:53:33;98492.47;;;16.06;53.98
19624;BME280;9959;49.798;9.928;2024-03-02T11:56:02;98477.16;;;17.63;50.78
19624;BME280;9959;49.798;9.928;2024-03-02T11:58:29;98476.38;;;16.84;51.31
19624;BME280;9959;49.798;9.928;2024-03-02T12:00:57;98475.06;;;17.20;50.97
19624;BME280;9959;49.798;9.928;2024-03-02T12:03:25;98462.09;;;17.75;49.03
19624;BME280;9959;49.798;9.928;2024-03-02T12:05:53;98462.88;;;17.47;49.36
19624;BME280;9959;49.798;9.928;2024-03-02T12:08:21;98462.00;;;17.22;49.33
19624;BME280;9959;49.798;9.928;2024-03-02T12:11:01;98451.28;;;18.18;46.92
19624;BME280;9959;49.798;9.928;2024-03-02T12:13:30;98453.59;;;18.06;47.35
19624;BME280;9959;49.798;9.928;2024-03-02T12:15:58;98453.50;;;17.58;47.89
19624;BME280;9959;49.798;9.928;2024-03-02T12:18:25;98453.16;;;17.36;48.76
19624;BME280;9959;49.798;9.928;2024-03-02T12:20:53;98445.63;;;16.88;48.15
19624;BME280;9959;49.798;9.928;2024-03-02T12:23:24;98443.69;;;17.28;47.81
19624;BME280;9959;49.798;9.928;2024-03-02T12:25:51;98440.34;;;17.02;48.71
19624;BME280;9959;49.798;9.928;2024-03-02T12:28:21;98431.91;;;17.72;47.30
19624;BME280;9959;49.798;9.928;2024-03-02T12:30:48;98431.63;;;17.39;47.17
19624;BME280;9959;49.798;9.928;2024-03-02T12:33:16;98428.53;;;18.89;43.84
19624;BME280;9959;49.798;9.928;2024-03-02T12:35:43;98424.59;;;17.91;45.35
19624;BME280;9959;49.798;9.928;2024-03-02T12:38:11;98419.16;;;17.67;46.52
19624;BME280;9959;49.798;9.928;2024-03-02T12:40:38;98421.16;;;17.51;46.14
19624;BME280;9959;49.798;9.928;2024-03-02T12:43:05;98414.00;;;18.56;44.10
19624;BME280;9959;49.798;9.928;2024-03-02T12:45:34;98412.94;;;18.76;44.04
19624;BME280;9959;49.798;9.928;2024-03-02T12:48:02;98407.06;;;18.45;43.82
19624;BME280;9959;49.798;9.928;2024-03-02T12:50:31;98404.91;;;18.84;43.22
19624;BME280;9959;49.798;9.928;2024-03-02T12:52:58;98397.91;;;18.59;43.71
19624;BME280;9959;49.798;9.928;2024-03-02T12:55:25;98402.66;;;20.11;41.60
19624;BME280;9959;49.798;9.928;2024-03-02T12:57:53;98404.28;;;19.39;42.40
19624;BME280;9959;49.798;9.928;2024-03-02T13:00:21;98392.16;;;19.12;42.36
19624;BME280;9959;49.798;9.928;2024-03-02T13:02:49;98392.69;;;19.14;42.22
19624;BME280;9959;49.798;9.928;2024-03-02T13:05:19;98375.91;;;18.70;44.02
19624;BME280;9959;49.798;9.928;2024-03-02T13:07:47;98380.19;;;18.76;43.60
19624;BME280;9959;49.798;9.928;2024-03-02T13:10:15;98367.59;;;19.12;42.09
19624;BME280;9959;49.798;9.928;2024-03-02T13:12:43;98372.19;;;19.77;41.16
19624;BME280;9959;49.798;9.928;2024-03-02T13:15:15;98367.47;;;18.47;42.43
19624;BME280;9959;49.798;9.928;2024-03-02T13:17:46;98357.63;;;19.95;40.59
19624;BME280;9959;49.798;9.928;2024-03-02T13:20:14;98353.25;;;20.93;39.20